sensor_id;sensor_type;location;lat;lon;timestamp;temperature;humidity
19359;DHT22;9815;52.334;20.890;2023-05-10T00:01:24;7.20;92.40
19359;DHT22;9815;52.334;20.890;2023-05-10T00:03:52;7.10;93.50
19359;DHT22;9815;52.334;20.890;2023-05-10T00:06:20;7.10;93.80
19359;DHT22;9815;52.334;20.890;2023-05-10T00:08:48;7.00;95.00
19359;DHT22;9815;52.334;20.890;2023-05-10T00:11:17;7.00;95.20
19359;DHT22;9815;52.334;20.890;2023-05-10T00:13:48;7.00;94.90
19359;DHT22;9815;52.334;20.890;2023-05-10T00:16:16;6.90;94.40
19359;DHT22;9815;52.334;20.890;2023-05-10T00:18:45;6.90;94.00
19359;DHT22;9815;52.334;20.890;2023-05-10T00:21:13;6.90;94.40
19359;DHT22;9815;52.334;20.890;2023-05-10T00:23:41;6.90;93.80
19359;DHT22;9815;52.334;20.890;2023-05-10T00:26:09;6.80;93.60
19359;DHT22;9815;52.334;20.890;2023-05-10T00:28:39;6.80;94.20
19359;DHT22;9815;52.334;20.890;2023-05-10T00:31:07;6.80;94.60
19359;DHT22;9815;52.334;20.890;2023-05-10T00:33:35;6.80;95.20
19359;DHT22;9815;52.334;20.890;2023-05-10T00:36:03;6.70;95.80
19359;DHT22;9815;52.334;20.890;2023-05-10T00:38:34;6.70;96.30
19359;DHT22;9815;52.334;20.890;2023-05-10T00:41:02;6.70;97.40
19359;DHT22;9815;52.334;20.890;2023-05-10T00:43:33;6.60;98.10
19359;DHT22;9815;52.334;20.890;2023-05-10T00:46:04;6.50;99.10
19359;DHT22;9815;52.334;20.890;2023-05-10T00:48:33;6.50;99.90
19359;DHT22;9815;52.334;20.890;2023-05-10T00:51:02;6.50;99.90
19359;DHT22;9815;52.334;20.890;2023-05-10T00:53:31;6.50;99.90
19359;DHT22;9815;52.334;20.890;2023-05-10T00:56:00;6.40;99.90
19359;DHT22;9815;52.334;20.890;2023-05-10T00:58:28;6.40;99.90
19359;DHT22;9815;52.334;20.890;2023-05-10T01:00:58;6.40;99.90
19359;DHT22;9815;52.334;20.890;2023-05-10T01:03:29;6.40;99.90
19359;DHT22;9815;52.334;20.890;2023-05-10T01:05:57;6.40;97.70
19359;DHT22;9815;52.334;20.890;2023-05-10T01:08:25;6.30;96.90
19359;DHT22;9815;52.334;20.890;2023-05-10T01:10:54;6.40;97.10
19359;DHT22;9815;52.334;20.890;2023-05-10T01:13:31;6.30;96.80
19359;DHT22;9815;52.334;20.890;2023-05-10T01:16:00;6.30;96.30
19359;DHT22;9815;52.334;20.890;2023-05-10T01:18:32;6.30;95.60
19359;DHT22;9815;52.334;20.890;2023-05-10T01:21:11;6.30;95.20
19359;DHT22;9815;52.334;20.890;2023-05-10T01:24:07;6.30;94.80
19359;DHT22;9815;52.334;20.890;2023-05-10T01:26:59;6.30;92.20
19359;DHT22;9815;52.334;20.890;2023-05-10T01:29:47;6.40;91.60
19359;DHT22;9815;52.334;20.890;2023-05-10T01:32:45;6.40;91.30
19359;DHT22;9815;52.334;20.890;2023-05-10T01:35:25;6.40;91.90
19359;DHT22;9815;52.334;20.890;2023-05-10T01:37:59;6.40;91.60
19359;DHT22;9815;52.334;20.890;2023-05-10T01:40:36;6.50;90.00
19359;DHT22;9815;52.334;20.890;2023-05-10T01:43:10;6.60;88.20
19359;DHT22;9815;52.334;20.890;2023-05-10T01:45:44;6.60;88.90
19359;DHT22;9815;52.334;20.890;2023-05-10T01:48:17;6.60;86.90
19359;DHT22;9815;52.334;20.890;2023-05-10T01:50:46;6.60;87.80
19359;DHT22;9815;52.334;20.890;2023-05-10T01:53:18;6.60;84.50
19359;DHT22;9815;52.334;20.890;2023-05-10T01:55:49;6.50;85.70
19359;DHT22;9815;52.334;20.890;2023-05-10T01:58:21;6.50;86.40
19359;DHT22;9815;52.334;20.890;2023-05-10T02:00:50;6.50;85.40
19359;DHT22;9815;52.334;20.890;2023-05-10T02:03:23;6.40;85.20
19359;DHT22;9815;52.334;20.890;2023-05-10T02:05:53;6.40;86.50
19359;DHT22;9815;52.334;20.890;2023-05-10T02:08:22;6.40;87.00
19359;DHT22;9815;52.334;20.890;2023-05-10T02:10:53;6.40;87.70
19359;DHT22;9815;52.334;20.890;2023-05-10T02:13:23;6.30;86.40
19359;DHT22;9815;52.334;20.890;2023-05-10T02:15:53;6.30;86.10
19359;DHT22;9815;52.334;20.890;2023-05-10T02:18:24;6.20;86.00
19359;DHT22;9815;52.334;20.890;2023-05-10T02:20:54;6.20;86.10
19359;DHT22;9815;52.334;20.890;2023-05-10T02:23:23;6.20;85.70
19359;DHT22;9815;52.334;20.890;2023-05-10T02:25:54;6.20;86.20
19359;DHT22;9815;52.334;20.890;2023-05-10T02:28:23;6.20;85.90
19359;DHT22;9815;52.334;20.890;2023-05-10T02:30:53;6.20;84.50
19359;DHT22;9815;52.334;20.890;2023-05-10T02:33:23;6.30;83.20
19359;DHT22;9815;52.334;20.890;2023-05-10T02:35:52;6.40;81.20
19359;DHT22;9815;52.334;20.890;2023-05-10T02:38:22;6.40;80.60
19359;DHT22;9815;52.334;20.890;2023-05-10T02:40:51;6.40;81.90
19359;DHT22;9815;52.334;20.890;2023-05-10T02:43:23;6.50;82.10
19359;DHT22;9815;52.334;20.890;2023-05-10T02:45:51;6.50;82.30
19359;DHT22;9815;52.334;20.890;2023-05-10T02:48:19;6.40;82.30
19359;DHT22;9815;52.334;20.890;2023-05-10T02:50:50;6.50;79.00
19359;DHT22;9815;52.334;20.890;2023-05-10T02:53:23;6.50;78.00
19359;DHT22;9815;52.334;20.890;2023-05-10T02:55:59;6.60;79.20
19359;DHT22;9815;52.334;20.890;2023-05-10T02:58:28;6.60;79.20
19359;DHT22;9815;52.334;20.890;2023-05-10T03:00:56;6.60;79.50
19359;DHT22;9815;52.334;20.890;2023-05-10T03:03:24;6.70;74.70
19359;DHT22;9815;52.334;20.890;2023-05-10T03:05:54;6.70;71.50
19359;DHT22;9815;52.334;20.890;2023-05-10T03:08:23;6.80;70.20
19359;DHT22;9815;52.334;20.890;2023-05-10T03:10:59;6.80;75.20
19359;DHT22;9815;52.334;20.890;2023-05-10T03:13:33;6.80;75.80
19359;DHT22;9815;52.334;20.890;2023-05-10T03:16:08;6.80;73.40
19359;DHT22;9815;52.334;20.890;2023-05-10T03:18:42;6.90;71.00
19359;DHT22;9815;52.334;20.890;2023-05-10T03:21:13;6.90;71.80
19359;DHT22;9815;52.334;20.890;2023-05-10T03:23:51;6.90;70.90
19359;DHT22;9815;52.334;20.890;2023-05-10T03:26:24;6.90;74.40
19359;DHT22;9815;52.334;20.890;2023-05-10T03:29:01;6.90;73.40
19359;DHT22;9815;52.334;20.890;2023-05-10T03:31:30;6.90;76.90
19359;DHT22;9815;52.334;20.890;2023-05-10T03:33:59;6.90;78.50
19359;DHT22;9815;52.334;20.890;2023-05-10T03:36:29;6.80;79.30
19359;DHT22;9815;52.334;20.890;2023-05-10T03:38:58;6.80;78.30
19359;DHT22;9815;52.334;20.890;2023-05-10T03:41:26;6.90;77.00
19359;DHT22;9815;52.334;20.890;2023-05-10T03:43:55;6.90;74.60
19359;DHT22;9815;52.334;20.890;2023-05-10T03:46:23;7.00;74.10
19359;DHT22;9815;52.334;20.890;2023-05-10T03:48:51;7.00;70.90
19359;DHT22;9815;52.334;20.890;2023-05-10T03:51:19;7.10;68.80
19359;DHT22;9815;52.334;20.890;2023-05-10T03:53:49;7.20;66.10
19359;DHT22;9815;52.334;20.890;2023-05-10T03:56:17;7.30;64.90
19359;DHT22;9815;52.334;20.890;2023-05-10T03:58:45;7.30;64.10
19359;DHT22;9815;52.334;20.890;2023-05-10T04:01:13;7.40;64.40
19359;DHT22;9815;52.334;20.890;2023-05-10T04:03:41;7.40;63.00
19359;DHT22;9815;52.334;20.890;2023-05-10T04:06:11;7.40;62.30
19359;DHT22;9815;52.334;20.890;2023-05-10T04:08:39;7.50;62.30
19359;DHT22;9815;52.334;20.890;2023-05-10T04:11:10;7.60;61.60
19359;DHT22;9815;52.334;20.890;2023-05-10T04:13:38;7.60;61.40
19359;DHT22;9815;52.334;20.890;2023-05-10T04:16:06;7.70;61.20
19359;DHT22;9815;52.334;20.890;2023-05-10T04:18:34;7.80;58.40
19359;DHT22;9815;52.334;20.890;2023-05-10T04:21:03;7.90;57.80
19359;DHT22;9815;52.334;20.890;2023-05-10T04:23:31;7.90;58.90
19359;DHT22;9815;52.334;20.890;2023-05-10T04:25:59;8.00;58.10
19359;DHT22;9815;52.334;20.890;2023-05-10T04:28:29;8.10;54.90
19359;DHT22;9815;52.334;20.890;2023-05-10T04:31:01;8.20;54.50
19359;DHT22;9815;52.334;20.890;2023-05-10T04:33:30;8.20;54.70
19359;DHT22;9815;52.334;20.890;2023-05-10T04:35:58;8.40;52.00
19359;DHT22;9815;52.334;20.890;2023-05-10T04:38:26;8.50;51.70
19359;DHT22;9815;52.334;20.890;2023-05-10T04:40:54;8.60;53.20
19359;DHT22;9815;52.334;20.890;2023-05-10T04:43:22;8.80;48.30
19359;DHT22;9815;52.334;20.890;2023-05-10T04:45:51;8.90;46.00
19359;DHT22;9815;52.334;20.890;2023-05-10T04:48:20;9.10;44.80
19359;DHT22;9815;52.334;20.890;2023-05-10T04:50:47;9.20;42.80
19359;DHT22;9815;52.334;20.890;2023-05-10T04:53:15;9.30;42.50
19359;DHT22;9815;52.334;20.890;2023-05-10T04:55:43;9.40;42.50
19359;DHT22;9815;52.334;20.890;2023-05-10T04:58:12;9.60;42.00
19359;DHT22;9815;52.334;20.890;2023-05-10T05:00:39;9.60;40.00
19359;DHT22;9815;52.334;20.890;2023-05-10T05:03:09;9.80;40.20
19359;DHT22;9815;52.334;20.890;2023-05-10T05:05:37;9.80;39.20
19359;DHT22;9815;52.334;20.890;2023-05-10T05:08:05;9.90;37.90
19359;DHT22;9815;52.334;20.890;2023-05-10T05:10:33;9.90;39.50
19359;DHT22;9815;52.334;20.890;2023-05-10T05:13:02;10.00;41.20
19359;DHT22;9815;52.334;20.890;2023-05-10T05:15:30;10.10;42.60
19359;DHT22;9815;52.334;20.890;2023-05-10T05:17:58;10.10;45.00
19359;DHT22;9815;52.334;20.890;2023-05-10T05:20:27;10.10;39.80
19359;DHT22;9815;52.334;20.890;2023-05-10T05:22:55;10.10;37.80
19359;DHT22;9815;52.334;20.890;2023-05-10T05:25:23;10.20;38.20
19359;DHT22;9815;52.334;20.890;2023-05-10T05:27:51;10.20;39.40
19359;DHT22;9815;52.334;20.890;2023-05-10T05:30:19;10.30;37.30
19359;DHT22;9815;52.334;20.890;2023-05-10T05:32:47;10.40;34.60
19359;DHT22;9815;52.334;20.890;2023-05-10T05:35:16;10.40;35.30
19359;DHT22;9815;52.334;20.890;2023-05-10T05:37:45;10.50;34.80
19359;DHT22;9815;52.334;20.890;2023-05-10T05:40:14;10.60;36.40
19359;DHT22;9815;52.334;20.890;2023-05-10T05:42:42;10.60;33.80
19359;DHT22;9815;52.334;20.890;2023-05-10T05:45:10;10.70;33.90
19359;DHT22;9815;52.334;20.890;2023-05-10T05:47:40;10.80;34.20
19359;DHT22;9815;52.334;20.890;2023-05-10T05:50:09;10.80;33.90
19359;DHT22;9815;52.334;20.890;2023-05-10T05:52:37;10.80;34.20
19359;DHT22;9815;52.334;20.890;2023-05-10T05:55:07;10.90;35.60
19359;DHT22;9815;52.334;20.890;2023-05-10T05:57:35;11.00;36.40
19359;DHT22;9815;52.334;20.890;2023-05-10T06:00:03;11.10;35.00
19359;DHT22;9815;52.334;20.890;2023-05-10T06:02:38;11.20;35.60
19359;DHT22;9815;52.334;20.890;2023-05-10T06:05:07;11.20;32.50
19359;DHT22;9815;52.334;20.890;2023-05-10T06:07:35;11.30;33.70
19359;DHT22;9815;52.334;20.890;2023-05-10T06:10:06;11.40;33.70
19359;DHT22;9815;52.334;20.890;2023-05-10T06:12:34;11.40;31.90
19359;DHT22;9815;52.334;20.890;2023-05-10T06:15:03;11.60;31.10
19359;DHT22;9815;52.334;20.890;2023-05-10T06:17:31;11.50;30.60
19359;DHT22;9815;52.334;20.890;2023-05-10T06:19:59;11.60;31.00
19359;DHT22;9815;52.334;20.890;2023-05-10T06:22:28;11.70;34.10
19359;DHT22;9815;52.334;20.890;2023-05-10T06:24:56;11.80;33.30
19359;DHT22;9815;52.334;20.890;2023-05-10T06:27:26;11.90;32.30
19359;DHT22;9815;52.334;20.890;2023-05-10T06:29:54;12.00;29.40
19359;DHT22;9815;52.334;20.890;2023-05-10T06:32:35;12.10;29.00
19359;DHT22;9815;52.334;20.890;2023-05-10T06:35:03;12.20;29.50
19359;DHT22;9815;52.334;20.890;2023-05-10T06:37:31;12.30;29.30
19359;DHT22;9815;52.334;20.890;2023-05-10T06:39:59;12.40;29.30
19359;DHT22;9815;52.334;20.890;2023-05-10T06:42:29;12.50;27.50
19359;DHT22;9815;52.334;20.890;2023-05-10T06:44:57;12.70;26.90
19359;DHT22;9815;52.334;20.890;2023-05-10T06:47:25;12.70;27.80
19359;DHT22;9815;52.334;20.890;2023-05-10T06:49:54;12.90;27.60
19359;DHT22;9815;52.334;20.890;2023-05-10T06:52:22;13.00;26.80
19359;DHT22;9815;52.334;20.890;2023-05-10T06:54:50;13.10;26.60
19359;DHT22;9815;52.334;20.890;2023-05-10T06:57:18;13.20;26.80
19359;DHT22;9815;52.334;20.890;2023-05-10T06:59:59;13.30;25.80
19359;DHT22;9815;52.334;20.890;2023-05-10T07:02:27;13.40;25.20
19359;DHT22;9815;52.334;20.890;2023-05-10T07:04:55;13.60;25.00
19359;DHT22;9815;52.334;20.890;2023-05-10T07:07:28;13.70;25.10
19359;DHT22;9815;52.334;20.890;2023-05-10T07:09:56;13.80;23.60
19359;DHT22;9815;52.334;20.890;2023-05-10T07:12:24;14.00;23.30
19359;DHT22;9815;52.334;20.890;2023-05-10T07:14:53;14.10;22.30
19359;DHT22;9815;52.334;20.890;2023-05-10T07:17:22;14.10;21.70
19359;DHT22;9815;52.334;20.890;2023-05-10T07:19:50;14.30;23.20
19359;DHT22;9815;52.334;20.890;2023-05-10T07:22:19;14.50;21.90
19359;DHT22;9815;52.334;20.890;2023-05-10T07:24:50;14.70;21.80
19359;DHT22;9815;52.334;20.890;2023-05-10T07:27:18;14.80;20.90
19359;DHT22;9815;52.334;20.890;2023-05-10T07:29:46;14.90;19.70
19359;DHT22;9815;52.334;20.890;2023-05-10T07:32:14;15.00;18.70
19359;DHT22;9815;52.334;20.890;2023-05-10T07:34:43;15.10;18.00
19359;DHT22;9815;52.334;20.890;2023-05-10T07:37:11;15.20;19.00
19359;DHT22;9815;52.334;20.890;2023-05-10T07:39:39;15.40;20.20
19359;DHT22;9815;52.334;20.890;2023-05-10T07:42:07;15.50;19.20
19359;DHT22;9815;52.334;20.890;2023-05-10T07:44:35;15.70;17.20
19359;DHT22;9815;52.334;20.890;2023-05-10T07:47:03;15.80;16.60
19359;DHT22;9815;52.334;20.890;2023-05-10T07:49:32;16.10;16.30
19359;DHT22;9815;52.334;20.890;2023-05-10T07:52:03;16.30;16.10
19359;DHT22;9815;52.334;20.890;2023-05-10T07:54:31;16.70;15.60
19359;DHT22;9815;52.334;20.890;2023-05-10T07:57:00;17.00;14.40
19359;DHT22;9815;52.334;20.890;2023-05-10T07:59:28;17.20;14.40
19359;DHT22;9815;52.334;20.890;2023-05-10T08:01:56;17.50;13.50
19359;DHT22;9815;52.334;20.890;2023-05-10T08:04:24;17.80;11.50
19359;DHT22;9815;52.334;20.890;2023-05-10T08:06:52;17.90;11.40
19359;DHT22;9815;52.334;20.890;2023-05-10T08:09:22;18.20;12.60
19359;DHT22;9815;52.334;20.890;2023-05-10T08:11:51;18.30;11.60
19359;DHT22;9815;52.334;20.890;2023-05-10T08:14:19;18.30;12.60
19359;DHT22;9815;52.334;20.890;2023-05-10T08:16:47;18.20;12.20
19359;DHT22;9815;52.334;20.890;2023-05-10T08:19:15;18.20;12.20
19359;DHT22;9815;52.334;20.890;2023-05-10T08:21:45;18.10;12.00
19359;DHT22;9815;52.334;20.890;2023-05-10T08:24:13;18.20;12.30
19359;DHT22;9815;52.334;20.890;2023-05-10T08:26:43;18.50;12.50
19359;DHT22;9815;52.334;20.890;2023-05-10T08:29:11;18.70;12.60
19359;DHT22;9815;52.334;20.890;2023-05-10T08:31:39;18.60;11.00
19359;DHT22;9815;52.334;20.890;2023-05-10T08:34:09;18.60;11.00
19359;DHT22;9815;52.334;20.890;2023-05-10T08:36:37;18.80;10.70
19359;DHT22;9815;52.334;20.890;2023-05-10T08:39:05;19.00;11.30
19359;DHT22;9815;52.334;20.890;2023-05-10T08:41:51;19.00;12.00
19359;DHT22;9815;52.334;20.890;2023-05-10T08:44:20;19.00;10.40
19359;DHT22;9815;52.334;20.890;2023-05-10T08:46:50;19.30;10.70
19359;DHT22;9815;52.334;20.890;2023-05-10T08:49:21;19.60;9.80
19359;DHT22;9815;52.334;20.890;2023-05-10T08:51:53;19.80;8.50
19359;DHT22;9815;52.334;20.890;2023-05-10T08:54:23;19.60;9.40
19359;DHT22;9815;52.334;20.890;2023-05-10T08:56:53;19.90;8.80
19359;DHT22;9815;52.334;20.890;2023-05-10T08:59:22;20.10;9.90
19359;DHT22;9815;52.334;20.890;2023-05-10T09:01:50;20.30;9.60
19359;DHT22;9815;52.334;20.890;2023-05-10T09:04:21;20.50;8.60
19359;DHT22;9815;52.334;20.890;2023-05-10T09:06:49;20.60;9.70
19359;DHT22;9815;52.334;20.890;2023-05-10T09:09:17;20.70;8.50
19359;DHT22;9815;52.334;20.890;2023-05-10T09:11:46;20.90;9.20
19359;DHT22;9815;52.334;20.890;2023-05-10T09:14:16;20.90;9.10
19359;DHT22;9815;52.334;20.890;2023-05-10T09:16:44;21.10;8.90
19359;DHT22;9815;52.334;20.890;2023-05-10T09:19:12;21.00;7.00
19359;DHT22;9815;52.334;20.890;2023-05-10T09:21:40;21.10;6.90
19359;DHT22;9815;52.334;20.890;2023-05-10T09:24:09;21.20;7.70
19359;DHT22;9815;52.334;20.890;2023-05-10T09:26:46;20.80;7.00
19359;DHT22;9815;52.334;20.890;2023-05-10T09:29:16;20.90;8.60
19359;DHT22;9815;52.334;20.890;2023-05-10T09:31:46;21.20;8.00
19359;DHT22;9815;52.334;20.890;2023-05-10T09:34:18;21.20;7.80
19359;DHT22;9815;52.334;20.890;2023-05-10T09:36:54;21.20;7.80
19359;DHT22;9815;52.334;20.890;2023-05-10T09:39:30;21.20;8.20
19359;DHT22;9815;52.334;20.890;2023-05-10T09:42:01;21.30;7.80
19359;DHT22;9815;52.334;20.890;2023-05-10T09:44:32;21.30;7.90
19359;DHT22;9815;52.334;20.890;2023-05-10T09:47:00;21.00;6.50
19359;DHT22;9815;52.334;20.890;2023-05-10T09:49:29;21.10;7.40
19359;DHT22;9815;52.334;20.890;2023-05-10T09:52:00;21.10;7.20
19359;DHT22;9815;52.334;20.890;2023-05-10T09:54:29;20.90;7.50
19359;DHT22;9815;52.334;20.890;2023-05-10T09:56:57;20.70;8.20
19359;DHT22;9815;52.334;20.890;2023-05-10T09:59:26;20.80;8.00
19359;DHT22;9815;52.334;20.890;2023-05-10T10:01:57;20.80;8.00
19359;DHT22;9815;52.334;20.890;2023-05-10T10:04:26;21.20;8.10
19359;DHT22;9815;52.334;20.890;2023-05-10T10:06:59;21.30;8.20
19359;DHT22;9815;52.334;20.890;2023-05-10T10:09:28;21.50;8.40
19359;DHT22;9815;52.334;20.890;2023-05-10T10:11:57;21.50;7.60
19359;DHT22;9815;52.334;20.890;2023-05-10T10:14:25;21.40;7.70
19359;DHT22;9815;52.334;20.890;2023-05-10T10:16:54;21.70;7.70
19359;DHT22;9815;52.334;20.890;2023-05-10T10:19:36;21.90;7.80
19359;DHT22;9815;52.334;20.890;2023-05-10T10:22:04;21.80;6.90
19359;DHT22;9815;52.334;20.890;2023-05-10T10:24:33;21.90;7.10
19359;DHT22;9815;52.334;20.890;2023-05-10T10:27:08;21.80;7.40
19359;DHT22;9815;52.334;20.890;2023-05-10T10:29:45;22.00;9.00
19359;DHT22;9815;52.334;20.890;2023-05-10T10:32:24;22.40;8.10
19359;DHT22;9815;52.334;20.890;2023-05-10T10:34:55;22.40;6.50
19359;DHT22;9815;52.334;20.890;2023-05-10T10:37:24;22.20;6.80
19359;DHT22;9815;52.334;20.890;2023-05-10T10:40:23;22.30;6.80
19359;DHT22;9815;52.334;20.890;2023-05-10T10:42:51;21.80;7.20
19359;DHT22;9815;52.334;20.890;2023-05-10T10:45:21;21.80;7.30
19359;DHT22;9815;52.334;20.890;2023-05-10T10:47:54;21.90;7.90
19359;DHT22;9815;52.334;20.890;2023-05-10T10:50:46;22.10;8.10
19359;DHT22;9815;52.334;20.890;2023-05-10T10:53:14;22.20;7.50
19359;DHT22;9815;52.334;20.890;2023-05-10T10:55:46;22.30;6.20
19359;DHT22;9815;52.334;20.890;2023-05-10T10:58:29;22.40;6.70
19359;DHT22;9815;52.334;20.890;2023-05-10T11:01:12;22.50;7.10
19359;DHT22;9815;52.334;20.890;2023-05-10T11:03:41;22.20;7.50
19359;DHT22;9815;52.334;20.890;2023-05-10T11:06:10;22.50;6.50
19359;DHT22;9815;52.334;20.890;2023-05-10T11:08:42;22.20;6.00
19359;DHT22;9815;52.334;20.890;2023-05-10T11:11:14;22.40;6.60
19359;DHT22;9815;52.334;20.890;2023-05-10T11:13:44;22.40;6.70
19359;DHT22;9815;52.334;20.890;2023-05-10T11:16:18;22.70;6.10
19359;DHT22;9815;52.334;20.890;2023-05-10T11:18:56;22.60;5.90
19359;DHT22;9815;52.334;20.890;2023-05-10T11:21:26;22.30;6.30
19359;DHT22;9815;52.334;20.890;2023-05-10T11:23:55;22.30;6.20
19359;DHT22;9815;52.334;20.890;2023-05-10T11:26:24;22.20;6.70
19359;DHT22;9815;52.334;20.890;2023-05-10T11:28:53;22.30;7.00
19359;DHT22;9815;52.334;20.890;2023-05-10T11:31:23;22.40;6.90
19359;DHT22;9815;52.334;20.890;2023-05-10T11:33:54;22.50;6.50
19359;DHT22;9815;52.334;20.890;2023-05-10T11:36:25;22.50;5.10
19359;DHT22;9815;52.334;20.890;2023-05-10T11:38:54;22.40;5.80
19359;DHT22;9815;52.334;20.890;2023-05-10T11:41:24;22.20;6.00
19359;DHT22;9815;52.334;20.890;2023-05-10T11:43:53;22.30;6.00
19359;DHT22;9815;52.334;20.890;2023-05-10T11:46:23;22.50;5.80
19359;DHT22;9815;52.334;20.890;2023-05-10T11:48:52;22.60;6.50
19359;DHT22;9815;52.334;20.890;2023-05-10T11:51:21;23.00;6.10
19359;DHT22;9815;52.334;20.890;2023-05-10T11:53:53;23.20;5.50
19359;DHT22;9815;52.334;20.890;2023-05-10T11:56:22;23.10;6.20
19359;DHT22;9815;52.334;20.890;2023-05-10T11:58:53;23.00;6.40
19359;DHT22;9815;52.334;20.890;2023-05-10T12:01:23;22.90;6.80
19359;DHT22;9815;52.334;20.890;2023-05-10T12:03:52;22.90;6.10
19359;DHT22;9815;52.334;20.890;2023-05-10T12:06:21;23.00;6.40
19359;DHT22;9815;52.334;20.890;2023-05-10T12:08:51;23.00;5.40
19359;DHT22;9815;52.334;20.890;2023-05-10T12:11:24;22.70;5.50
19359;DHT22;9815;52.334;20.890;2023-05-10T12:13:52;23.00;6.00
19359;DHT22;9815;52.334;20.890;2023-05-10T12:16:21;23.10;4.70
19359;DHT22;9815;52.334;20.890;2023-05-10T12:18:50;22.60;4.40
19359;DHT22;9815;52.334;20.890;2023-05-10T12:21:20;22.40;5.70
19359;DHT22;9815;52.334;20.890;2023-05-10T12:23:51;22.30;5.70
19359;DHT22;9815;52.334;20.890;2023-05-10T12:26:21;22.30;6.00
19359;DHT22;9815;52.334;20.890;2023-05-10T12:28:49;22.50;5.80
19359;DHT22;9815;52.334;20.890;2023-05-10T12:31:17;22.30;6.40
19359;DHT22;9815;52.334;20.890;2023-05-10T12:33:46;22.60;6.50
19359;DHT22;9815;52.334;20.890;2023-05-10T12:36:16;22.60;6.30
19359;DHT22;9815;52.334;20.890;2023-05-10T12:39:02;22.60;5.70
19359;DHT22;9815;52.334;20.890;2023-05-10T12:41:31;22.60;5.60
19359;DHT22;9815;52.334;20.890;2023-05-10T12:43:59;22.90;6.30
19359;DHT22;9815;52.334;20.890;2023-05-10T12:46:27;23.00;5.60
19359;DHT22;9815;52.334;20.890;2023-05-10T12:48:56;22.60;5.40
19359;DHT22;9815;52.334;20.890;2023-05-10T12:51:35;22.90;5.70
19359;DHT22;9815;52.334;20.890;2023-05-10T12:54:05;22.90;6.10
19359;DHT22;9815;52.334;20.890;2023-05-10T12:56:33;23.00;6.40
19359;DHT22;9815;52.334;20.890;2023-05-10T12:59:01;22.90;6.00
19359;DHT22;9815;52.334;20.890;2023-05-10T13:01:29;23.00;6.50
19359;DHT22;9815;52.334;20.890;2023-05-10T13:03:57;23.00;6.30
19359;DHT22;9815;52.334;20.890;2023-05-10T13:06:26;23.00;6.10
19359;DHT22;9815;52.334;20.890;2023-05-10T13:08:54;23.00;5.10
19359;DHT22;9815;52.334;20.890;2023-05-10T13:11:25;22.60;6.60
19359;DHT22;9815;52.334;20.890;2023-05-10T13:13:54;22.70;7.10
19359;DHT22;9815;52.334;20.890;2023-05-10T13:16:22;23.00;6.70
19359;DHT22;9815;52.334;20.890;2023-05-10T13:18:50;23.30;6.10
19359;DHT22;9815;52.334;20.890;2023-05-10T13:21:19;23.20;6.00
19359;DHT22;9815;52.334;20.890;2023-05-10T13:23:48;22.90;6.60
19359;DHT22;9815;52.334;20.890;2023-05-10T13:26:20;22.70;5.60
19359;DHT22;9815;52.334;20.890;2023-05-10T13:28:50;22.70;6.10
19359;DHT22;9815;52.334;20.890;2023-05-10T13:31:18;22.50;6.10
19359;DHT22;9815;52.334;20.890;2023-05-10T13:33:47;22.90;6.50
19359;DHT22;9815;52.334;20.890;2023-05-10T13:36:15;23.10;6.90
19359;DHT22;9815;52.334;20.890;2023-05-10T13:38:44;23.30;6.40
19359;DHT22;9815;52.334;20.890;2023-05-10T13:41:12;23.50;5.60
19359;DHT22;9815;52.334;20.890;2023-05-10T13:43:40;23.40;5.70
19359;DHT22;9815;52.334;20.890;2023-05-10T13:46:10;23.10;6.50
19359;DHT22;9815;52.334;20.890;2023-05-10T13:48:38;22.90;6.80
19359;DHT22;9815;52.334;20.890;2023-05-10T13:51:06;22.80;7.50
19359;DHT22;9815;52.334;20.890;2023-05-10T13:53:34;22.70;5.70
19359;DHT22;9815;52.334;20.890;2023-05-10T13:56:41;22.20;6.10
19359;DHT22;9815;52.334;20.890;2023-05-10T13:59:10;22.30;7.00
19359;DHT22;9815;52.334;20.890;2023-05-10T14:01:40;22.10;6.40
19359;DHT22;9815;52.334;20.890;2023-05-10T14:04:09;22.30;6.90
19359;DHT22;9815;52.334;20.890;2023-05-10T14:06:38;22.50;6.70
19359;DHT22;9815;52.334;20.890;2023-05-10T14:09:06;22.50;7.00
19359;DHT22;9815;52.334;20.890;2023-05-10T14:11:35;22.50;7.30
19359;DHT22;9815;52.334;20.890;2023-05-10T14:14:03;22.60;7.10
19359;DHT22;9815;52.334;20.890;2023-05-10T14:16:32;22.60;7.00
19359;DHT22;9815;52.334;20.890;2023-05-10T14:19:01;22.90;6.90
19359;DHT22;9815;52.334;20.890;2023-05-10T14:21:30;22.80;6.10
19359;DHT22;9815;52.334;20.890;2023-05-10T14:23:58;22.90;6.40
19359;DHT22;9815;52.334;20.890;2023-05-10T14:26:26;23.20;6.50
19359;DHT22;9815;52.334;20.890;2023-05-10T14:28:54;23.20;5.60
19359;DHT22;9815;52.334;20.890;2023-05-10T14:31:22;22.80;6.00
19359;DHT22;9815;52.334;20.890;2023-05-10T14:33:53;22.80;6.80
19359;DHT22;9815;52.334;20.890;2023-05-10T14:36:22;22.70;6.90
19359;DHT22;9815;52.334;20.890;2023-05-10T14:38:50;22.80;6.80
19359;DHT22;9815;52.334;20.890;2023-05-10T14:41:19;22.50;7.00
19359;DHT22;9815;52.334;20.890;2023-05-10T14:43:47;22.50;7.20
19359;DHT22;9815;52.334;20.890;2023-05-10T14:46:15;22.50;7.00
19359;DHT22;9815;52.334;20.890;2023-05-10T14:48:43;22.70;7.60
19359;DHT22;9815;52.334;20.890;2023-05-10T14:51:11;22.50;6.10
19359;DHT22;9815;52.334;20.890;2023-05-10T14:53:41;22.40;5.70
19359;DHT22;9815;52.334;20.890;2023-05-10T14:56:09;22.30;5.70
19359;DHT22;9815;52.334;20.890;2023-05-10T14:58:37;22.30;6.20
19359;DHT22;9815;52.334;20.890;2023-05-10T15:01:05;22.30;6.40
19359;DHT22;9815;52.334;20.890;2023-05-10T15:03:34;22.30;6.90
19359;DHT22;9815;52.334;20.890;2023-05-10T15:06:04;22.20;6.70
19359;DHT22;9815;52.334;20.890;2023-05-10T15:08:33;22.20;6.40
19359;DHT22;9815;52.334;20.890;2023-05-10T15:11:03;22.30;6.30
19359;DHT22;9815;52.334;20.890;2023-05-10T15:13:31;22.20;6.70
19359;DHT22;9815;52.334;20.890;2023-05-10T15:16:00;22.00;6.80
19359;DHT22;9815;52.334;20.890;2023-05-10T15:18:28;22.20;6.50
19359;DHT22;9815;52.334;20.890;2023-05-10T15:20:56;21.90;6.20
19359;DHT22;9815;52.334;20.890;2023-05-10T15:23:25;22.10;6.90
19359;DHT22;9815;52.334;20.890;2023-05-10T15:25:53;22.00;6.90
19359;DHT22;9815;52.334;20.890;2023-05-10T15:28:24;22.20;7.60
19359;DHT22;9815;52.334;20.890;2023-05-10T15:30:51;22.10;6.50
19359;DHT22;9815;52.334;20.890;2023-05-10T15:33:20;22.00;7.20
19359;DHT22;9815;52.334;20.890;2023-05-10T15:35:48;21.90;7.00
19359;DHT22;9815;52.334;20.890;2023-05-10T15:38:16;21.80;6.60
19359;DHT22;9815;52.334;20.890;2023-05-10T15:40:45;21.60;6.80
19359;DHT22;9815;52.334;20.890;2023-05-10T15:43:14;21.60;6.50
19359;DHT22;9815;52.334;20.890;2023-05-10T15:45:43;21.50;7.10
19359;DHT22;9815;52.334;20.890;2023-05-10T15:48:11;21.50;6.90
19359;DHT22;9815;52.334;20.890;2023-05-10T15:50:39;21.20;6.20
19359;DHT22;9815;52.334;20.890;2023-05-10T15:53:07;21.30;7.20
19359;DHT22;9815;52.334;20.890;2023-05-10T15:55:35;21.20;7.60
19359;DHT22;9815;52.334;20.890;2023-05-10T15:58:04;21.00;7.90
19359;DHT22;9815;52.334;20.890;2023-05-10T16:00:32;20.70;8.20